Time;durP1;ratioP1;P1;durP2;ratioP2;P2;SDS_P1;SDS_P2;PMS_P1;PMS_P2;Temp;Humidity;BMP_temperature;BMP_pressure;BME280_temperature;BME280_humidity;BME280_pressure;Samples;Min_cycle;Max_cycle;Signal;HPM_P1;HPM_P2
2021/12/27 00:00:24;;;;;;;;;;;6.10;99.90;;;;;;5093096;28;19964;-74
2021/12/27 00:02:51;;;;;;;;;;;6.40;99.90;;;;;;5092587;28;20014;-74
2021/12/27 00:05:18;;;;;;;;;;;6.40;99.90;;;;;;5091781;28;19908;-75
2021/12/27 00:07:48;;;;;;;;;;;6.50;99.90;;;;;;5093610;28;19950;-73
2021/12/27 00:10:13;;;;;;;;;;;6.70;99.90;;;;;;5072688;28;19908;-74
2021/12/27 00:12:39;;;;;;;;;;;6.80;99.90;;;;;;5093874;28;19915;-75
2021/12/27 00:15:05;;;;;;;;;;;6.90;99.90;;;;;;5094408;28;20002;-73
2021/12/27 00:17:31;;;;;;;;;;;6.50;99.90;;;;;;5087105;28;19989;-72
2021/12/27 00:19:56;;;;;;;;;;;6.20;99.90;;;;;;5074304;28;20197;-73
2021/12/27 00:22:22;;;;;;;;;;;6.30;99.90;;;;;;5074136;28;20335;-72
2021/12/27 00:24:48;;;;;;;;;;;6.10;99.90;;;;;;5072764;28;19912;-73
2021/12/27 00:27:15;;;;;;;;;;;6.20;99.90;;;;;;5074705;28;20245;-73
2021/12/27 00:29:41;;;;;;;;;;;6.20;99.90;;;;;;5074880;28;19913;-72
2021/12/27 00:32:07;;;;;;;;;;;6.20;99.90;;;;;;5073132;28;20350;-73
2021/12/27 00:34:36;;;;;;;;;;;6.10;99.90;;;;;;5081651;28;19943;-72
2021/12/27 00:37:02;;;;;;;;;;;6.20;99.90;;;;;;5094853;28;19923;-72
2021/12/27 00:39:28;;;;;;;;;;;6.20;99.90;;;;;;5093318;28;20011;-72
2021/12/27 00:41:54;;;;;;;;;;;6.40;99.90;;;;;;5093249;28;20053;-74
2021/12/27 00:44:19;;;;;;;;;;;6.50;99.90;;;;;;5093644;28;20453;-73
2021/12/27 00:46:45;;;;;;;;;;;6.30;99.90;;;;;;5092928;28;20282;-76
2021/12/27 00:49:10;;;;;;;;;;;6.20;99.90;;;;;;5092967;28;19921;-74
2021/12/27 00:51:36;;;;;;;;;;;6.10;99.90;;;;;;5092971;28;19912;-72
2021/12/27 00:54:02;;;;;;;;;;;5.90;99.90;;;;;;5092165;28;19968;-73
2021/12/27 00:56:27;;;;;;;;;;;5.70;99.90;;;;;;5074482;28;20282;-73
2021/12/27 00:58:53;;;;;;;;;;;5.60;99.90;;;;;;5093113;28;19934;-76
2021/12/27 01:01:18;;;;;;;;;;;5.60;99.90;;;;;;5093135;28;20007;-73
2021/12/27 01:03:44;;;;;;;;;;;5.50;99.90;;;;;;5093606;28;19912;-73
2021/12/27 01:06:10;;;;;;;;;;;5.60;99.90;;;;;;5095052;28;20283;-73
2021/12/27 01:08:37;;;;;;;;;;;5.80;99.90;;;;;;5095088;28;19908;-74
2021/12/27 01:11:23;;;;;;;;;;;6.80;99.90;;;;;;5094769;28;19918;-73
2021/12/27 01:14:14;;;;;;;;;;;6.40;99.90;;;;;;5094984;28;19949;-73
2021/12/27 01:16:37;;;;;;;;;;;6.20;99.90;;;;;;5094532;28;19911;-73
2021/12/27 01:19:02;;;;;;;;;;;6.10;99.90;;;;;;5094828;28;20278;-73
2021/12/27 01:21:28;;;;;;;;;;;6.00;99.90;;;;;;5094591;28;19999;-73
2021/12/27 01:23:54;;;;;;;;;;;6.10;99.90;;;;;;5094764;28;19992;-73
2021/12/27 01:26:20;;;;;;;;;;;6.20;99.90;;;;;;5094556;28;19915;-73
2021/12/27 01:28:45;;;;;;;;;;;6.30;99.90;;;;;;5094614;28;19973;-73
2021/12/27 01:31:11;;;;;;;;;;;6.30;99.90;;;;;;5094545;28;19965;-73
2021/12/27 01:33:37;;;;;;;;;;;6.20;99.90;;;;;;5094354;28;19914;-73
2021/12/27 01:36:04;;;;;;;;;;;5.90;99.90;;;;;;5094321;28;19934;-73
2021/12/27 01:38:30;;;;;;;;;;;6.00;99.90;;;;;;5094295;28;19908;-73
2021/12/27 01:40:56;;;;;;;;;;;6.10;99.90;;;;;;5094259;28;19908;-73
2021/12/27 01:43:24;;;;;;;;;;;6.00;99.90;;;;;;5094373;28;19916;-73
2021/12/27 01:45:57;;;;;;;;;;;6.00;99.90;;;;;;5093691;28;20355;-73
2021/12/27 01:48:25;;;;;;;;;;;6.20;99.90;;;;;;5094304;28;19912;-73
2021/12/27 01:50:54;;;;;;;;;;;6.30;99.90;;;;;;5094319;28;19908;-73
2021/12/27 01:53:20;;;;;;;;;;;6.40;99.90;;;;;;5093960;28;19908;-73
2021/12/27 01:55:47;;;;;;;;;;;6.60;99.90;;;;;;5093062;28;19908;-73
2021/12/27 01:58:12;;;;;;;;;;;6.50;99.90;;;;;;5075759;28;20278;-73
2021/12/27 02:00:40;;;;;;;;;;;6.50;99.90;;;;;;5092971;28;20037;-74
2021/12/27 02:03:05;;;;;;;;;;;6.40;99.90;;;;;;5093925;28;20010;-73
2021/12/27 02:05:31;;;;;;;;;;;6.30;99.90;;;;;;5093994;28;19951;-73
2021/12/27 02:07:57;;;;;;;;;;;6.10;99.90;;;;;;5094087;28;19995;-73
2021/12/27 02:10:22;;;;;;;;;;;5.90;99.90;;;;;;5075975;28;19908;-73
2021/12/27 02:12:48;;;;;;;;;;;5.80;99.90;;;;;;5093963;28;20279;-73
2021/12/27 02:15:14;;;;;;;;;;;5.70;99.90;;;;;;5093912;28;19990;-72
2021/12/27 02:17:43;;;;;;;;;;;5.70;99.90;;;;;;5075604;28;20270;-74
2021/12/27 02:20:10;;;;;;;;;;;5.60;99.90;;;;;;5093789;28;20027;-73
2021/12/27 02:22:39;;;;;;;;;;;5.50;99.90;;;;;;5093634;28;19938;-73
2021/12/27 02:25:06;;;;;;;;;;;5.40;99.90;;;;;;5075574;28;19919;-73
2021/12/27 02:27:32;;;;;;;;;;;5.40;99.90;;;;;;5093522;28;19922;-75
2021/12/27 02:29:58;;;;;;;;;;;5.30;99.90;;;;;;5093196;28;19914;-73
2021/12/27 02:32:23;;;;;;;;;;;5.30;99.90;;;;;;5093590;28;20002;-73
2021/12/27 02:34:49;;;;;;;;;;;5.20;99.90;;;;;;5093602;28;20024;-73
2021/12/27 02:37:14;;;;;;;;;;;5.20;99.90;;;;;;5093323;28;20430;-73
2021/12/27 02:39:40;;;;;;;;;;;5.20;99.90;;;;;;5093631;28;19912;-73
2021/12/27 02:42:06;;;;;;;;;;;5.20;99.90;;;;;;5075307;28;19920;-73
2021/12/27 02:44:33;;;;;;;;;;;5.20;99.90;;;;;;5093521;28;19912;-73
2021/12/27 02:46:59;;;;;;;;;;;5.10;99.90;;;;;;5093442;28;19908;-73
2021/12/27 02:49:24;;;;;;;;;;;5.10;99.90;;;;;;5075496;28;19918;-73
2021/12/27 02:51:52;;;;;;;;;;;5.10;99.90;;;;;;5093582;28;19927;-73
2021/12/27 02:54:18;;;;;;;;;;;5.10;99.90;;;;;;5075412;28;19994;-73
2021/12/27 02:56:43;;;;;;;;;;;5.10;99.90;;;;;;5094772;28;19942;-72
2021/12/27 02:59:09;;;;;;;;;;;5.00;99.90;;;;;;5079405;28;19908;-73
2021/12/27 03:01:35;;;;;;;;;;;5.00;99.90;;;;;;5096626;28;20105;-73
2021/12/27 03:04:00;;;;;;;;;;;5.00;99.90;;;;;;5079495;28;19942;-73
2021/12/27 03:06:26;;;;;;;;;;;5.00;99.90;;;;;;5097421;28;19916;-73
2021/12/27 03:08:52;;;;;;;;;;;5.00;99.90;;;;;;5097448;28;19915;-73
2021/12/27 03:11:17;;;;;;;;;;;4.90;99.90;;;;;;5079145;28;19908;-73
2021/12/27 03:13:50;;;;;;;;;;;4.90;99.90;;;;;;5097250;28;19908;-73
2021/12/27 03:16:17;;;;;;;;;;;4.90;99.90;;;;;;5097238;28;19912;-73
2021/12/27 03:18:44;;;;;;;;;;;4.90;99.90;;;;;;5097314;28;19908;-73
2021/12/27 03:21:10;;;;;;;;;;;4.80;99.90;;;;;;5097120;28;20275;-73
2021/12/27 03:23:37;;;;;;;;;;;4.80;99.90;;;;;;5096924;28;19912;-73
2021/12/27 03:26:03;;;;;;;;;;;4.80;99.90;;;;;;5096923;28;19957;-72
2021/12/27 03:28:29;;;;;;;;;;;4.80;99.90;;;;;;5096964;28;19943;-73
2021/12/27 03:30:55;;;;;;;;;;;4.80;99.90;;;;;;5096930;28;20016;-73
2021/12/27 03:33:22;;;;;;;;;;;4.80;99.90;;;;;;5096958;28;20367;-73
2021/12/27 03:36:09;;;;;;;;;;;4.70;99.90;;;;;;5096791;28;20006;-73
2021/12/27 03:38:37;;;;;;;;;;;4.70;99.90;;;;;;5096924;28;19990;-72
2021/12/27 03:41:03;;;;;;;;;;;4.70;99.90;;;;;;5096747;28;19912;-73
2021/12/27 03:43:29;;;;;;;;;;;4.70;99.90;;;;;;5096620;28;19969;-72
2021/12/27 03:45:54;;;;;;;;;;;4.80;99.90;;;;;;5096655;28;19912;-73
2021/12/27 03:48:20;;;;;;;;;;;4.80;99.90;;;;;;5096581;28;19908;-72
2021/12/27 03:50:46;;;;;;;;;;;4.70;99.90;;;;;;5096501;28;19908;-73
2021/12/27 03:53:11;;;;;;;;;;;4.80;99.90;;;;;;5096271;28;20349;-73
2021/12/27 03:55:37;;;;;;;;;;;4.90;99.90;;;;;;5096126;28;19919;-72
2021/12/27 03:58:21;;;;;;;;;;;4.80;99.90;;;;;;5096219;28;19908;-73
2021/12/27 04:00:59;;;;;;;;;;;4.70;99.90;;;;;;5096232;28;19912;-73
2021/12/27 04:03:25;;;;;;;;;;;4.80;99.90;;;;;;5096386;28;19915;-73
2021/12/27 04:05:50;;;;;;;;;;;4.80;99.90;;;;;;5096302;28;20053;-72
2021/12/27 04:08:18;;;;;;;;;;;4.80;99.90;;;;;;5095225;28;19908;-73
2021/12/27 04:10:44;;;;;;;;;;;4.80;99.90;;;;;;5096320;28;19913;-73
2021/12/27 04:13:10;;;;;;;;;;;4.80;99.90;;;;;;5096515;28;19914;-73
2021/12/27 04:15:36;;;;;;;;;;;4.80;99.90;;;;;;5096116;28;20406;-73
2021/12/27 04:18:02;;;;;;;;;;;4.90;99.90;;;;;;5077966;28;19989;-72
2021/12/27 04:20:28;;;;;;;;;;;4.90;99.90;;;;;;5094328;28;19998;-73
2021/12/27 04:22:54;;;;;;;;;;;4.90;99.90;;;;;;5084685;28;20371;-73
2021/12/27 04:25:20;;;;;;;;;;;4.90;99.90;;;;;;5075535;28;19912;-73
2021/12/27 04:27:46;;;;;;;;;;;4.90;99.90;;;;;;5075478;28;19912;-73
2021/12/27 04:30:12;;;;;;;;;;;4.80;99.90;;;;;;5075487;28;19912;-72
2021/12/27 04:32:38;;;;;;;;;;;4.80;99.90;;;;;;5075471;28;19922;-75
2021/12/27 04:35:04;;;;;;;;;;;4.80;99.90;;;;;;5075043;28;20003;-73
2021/12/27 04:37:29;;;;;;;;;;;4.80;99.90;;;;;;5075541;28;19938;-73
2021/12/27 04:39:58;;;;;;;;;;;4.80;99.90;;;;;;5075327;28;19951;-73
2021/12/27 04:42:25;;;;;;;;;;;4.60;99.90;;;;;;5093652;28;19920;-73
2021/12/27 04:44:51;;;;;;;;;;;4.60;99.90;;;;;;5095556;28;19916;-73
2021/12/27 04:47:18;;;;;;;;;;;4.70;99.90;;;;;;5095539;28;20022;-73
2021/12/27 04:49:44;;;;;;;;;;;4.60;99.90;;;;;;5095389;28;19915;-73
2021/12/27 04:52:10;;;;;;;;;;;4.70;99.90;;;;;;5095389;28;19912;-73
2021/12/27 04:54:36;;;;;;;;;;;4.60;99.90;;;;;;5095381;28;19914;-72
2021/12/27 04:57:02;;;;;;;;;;;4.60;99.90;;;;;;5095171;28;19908;-73
2021/12/27 04:59:28;;;;;;;;;;;4.60;99.90;;;;;;5095139;28;19922;-73
2021/12/27 05:01:53;;;;;;;;;;;4.60;99.90;;;;;;5095092;28;19912;-73
2021/12/27 05:04:19;;;;;;;;;;;4.60;99.90;;;;;;5095032;28;19998;-72
2021/12/27 05:06:44;;;;;;;;;;;4.50;99.90;;;;;;5076925;28;19912;-73
2021/12/27 05:09:11;;;;;;;;;;;4.50;99.90;;;;;;5095107;28;19961;-73
2021/12/27 05:11:36;;;;;;;;;;;4.50;99.90;;;;;;5094478;28;20008;-72
2021/12/27 05:14:02;;;;;;;;;;;4.60;99.90;;;;;;5076514;28;19955;-73
2021/12/27 05:16:28;;;;;;;;;;;4.70;99.90;;;;;;5094741;28;19908;-73
2021/12/27 05:18:53;;;;;;;;;;;4.60;99.90;;;;;;5094766;28;20266;-73
2021/12/27 05:21:19;;;;;;;;;;;4.50;99.90;;;;;;5093691;28;20557;-73
2021/12/27 05:23:45;;;;;;;;;;;4.50;99.90;;;;;;5076651;28;19915;-73
2021/12/27 05:26:10;;;;;;;;;;;4.40;99.90;;;;;;5094652;28;19923;-73
2021/12/27 05:28:36;;;;;;;;;;;4.30;99.90;;;;;;5094710;28;20045;-71
2021/12/27 05:31:01;;;;;;;;;;;4.40;99.90;;;;;;5076468;28;19908;-73
2021/12/27 05:33:27;;;;;;;;;;;4.50;99.90;;;;;;5094606;28;19998;-72
2021/12/27 05:35:53;;;;;;;;;;;4.30;99.90;;;;;;5094521;28;20006;-72
2021/12/27 05:38:18;;;;;;;;;;;4.30;99.90;;;;;;5094439;28;19982;-72
2021/12/27 05:40:44;;;;;;;;;;;4.30;99.90;;;;;;5094275;28;19908;-73
2021/12/27 05:43:10;;;;;;;;;;;4.20;99.90;;;;;;5076241;28;19919;-73
2021/12/27 05:45:36;;;;;;;;;;;4.10;99.90;;;;;;5076304;28;19912;-72
2021/12/27 05:48:02;;;;;;;;;;;4.20;99.90;;;;;;5094237;28;19965;-73
2021/12/27 05:50:28;;;;;;;;;;;4.30;99.90;;;;;;5076047;28;19908;-72
2021/12/27 05:52:53;;;;;;;;;;;4.30;99.90;;;;;;5076059;28;19915;-73
2021/12/27 05:55:19;;;;;;;;;;;4.40;99.90;;;;;;5094225;28;19950;-73
2021/12/27 05:57:45;;;;;;;;;;;4.50;99.90;;;;;;5094244;28;20321;-72
2021/12/27 06:00:11;;;;;;;;;;;4.50;99.90;;;;;;5094255;28;20565;-73
2021/12/27 06:02:37;;;;;;;;;;;4.60;99.90;;;;;;5093957;28;19999;-72
2021/12/27 06:05:03;;;;;;;;;;;4.50;99.90;;;;;;5093977;28;19997;-73
2021/12/27 06:07:30;;;;;;;;;;;4.60;99.90;;;;;;5094051;28;19942;-72
2021/12/27 06:09:56;;;;;;;;;;;4.40;99.90;;;;;;5094057;28;20045;-73
2021/12/27 06:12:22;;;;;;;;;;;4.30;99.90;;;;;;5093829;28;19955;-72
2021/12/27 06:14:47;;;;;;;;;;;4.30;99.90;;;;;;5093701;28;20429;-72
2021/12/27 06:17:13;;;;;;;;;;;4.40;99.90;;;;;;5075807;28;19969;-73
2021/12/27 06:19:39;;;;;;;;;;;4.40;99.90;;;;;;5093978;28;20377;-74
2021/12/27 06:22:04;;;;;;;;;;;4.40;99.90;;;;;;5093822;28;19969;-73
2021/12/27 06:24:30;;;;;;;;;;;4.50;99.90;;;;;;5093807;28;19907;-72
2021/12/27 06:26:56;;;;;;;;;;;4.50;99.90;;;;;;5093673;28;19965;-73
2021/12/27 06:29:21;;;;;;;;;;;4.60;99.90;;;;;;5093766;28;19942;-72
2021/12/27 06:31:47;;;;;;;;;;;4.60;99.90;;;;;;5092805;28;19919;-73
2021/12/27 06:34:14;;;;;;;;;;;4.30;99.90;;;;;;5093031;28;19919;-72
2021/12/27 06:36:39;;;;;;;;;;;4.20;99.90;;;;;;5092883;28;19938;-73
2021/12/27 06:39:05;;;;;;;;;;;4.10;99.90;;;;;;5092961;28;20347;-73
2021/12/27 06:41:31;;;;;;;;;;;4.00;99.90;;;;;;5075478;28;19989;-73
2021/12/27 06:43:57;;;;;;;;;;;4.00;99.90;;;;;;5093624;28;20394;-73
2021/12/27 06:46:23;;;;;;;;;;;4.10;99.90;;;;;;5093209;28;19919;-73
2021/12/27 06:48:49;;;;;;;;;;;4.40;99.90;;;;;;5093558;28;19954;-73
2021/12/27 06:51:15;;;;;;;;;;;4.50;99.90;;;;;;5093474;28;19912;-73
2021/12/27 06:53:40;;;;;;;;;;;4.80;99.90;;;;;;5093397;28;19914;-73
2021/12/27 06:56:06;;;;;;;;;;;5.20;99.90;;;;;;5075192;28;19908;-73
2021/12/27 06:58:32;;;;;;;;;;;5.40;99.90;;;;;;5093450;28;19908;-72
2021/12/27 07:00:57;;;;;;;;;;;5.20;99.90;;;;;;5093342;28;19908;-73
2021/12/27 07:03:23;;;;;;;;;;;4.60;99.90;;;;;;5093386;28;19924;-72
2021/12/27 07:05:49;;;;;;;;;;;4.60;99.90;;;;;;5093326;28;20267;-72
2021/12/27 07:08:15;;;;;;;;;;;4.70;99.90;;;;;;5093171;28;19921;-73
2021/12/27 07:10:41;;;;;;;;;;;4.70;99.90;;;;;;5075340;28;20416;-73
2021/12/27 07:13:09;;;;;;;;;;;4.60;99.90;;;;;;5093255;28;19908;-73
2021/12/27 07:15:41;;;;;;;;;;;4.70;99.90;;;;;;5093249;28;19916;-73
2021/12/27 07:18:07;;;;;;;;;;;4.80;99.90;;;;;;5092038;28;19938;-74
2021/12/27 07:20:33;;;;;;;;;;;4.90;99.90;;;;;;5093258;28;20420;-74
2021/12/27 07:22:59;;;;;;;;;;;4.90;99.90;;;;;;5093068;28;19920;-74
2021/12/27 07:25:24;;;;;;;;;;;5.10;99.90;;;;;;5093010;28;19944;-74
2021/12/27 07:27:50;;;;;;;;;;;5.20;99.90;;;;;;5093004;28;20283;-73
2021/12/27 07:30:15;;;;;;;;;;;5.30;99.90;;;;;;5092543;28;19915;-74
2021/12/27 07:32:41;;;;;;;;;;;5.10;99.90;;;;;;5093092;28;19916;-75
2021/12/27 07:35:07;;;;;;;;;;;5.30;99.90;;;;;;5093108;28;19908;-74
2021/12/27 07:37:33;;;;;;;;;;;5.40;99.90;;;;;;5093018;28;19908;-74
2021/12/27 07:39:59;;;;;;;;;;;5.40;99.90;;;;;;5092897;28;19912;-74
2021/12/27 07:42:24;;;;;;;;;;;5.50;99.90;;;;;;5092985;28;19920;-74
2021/12/27 07:44:50;;;;;;;;;;;5.50;99.90;;;;;;5095844;28;19922;-74
2021/12/27 07:47:15;;;;;;;;;;;5.70;99.90;;;;;;5096170;28;19994;-74
2021/12/27 07:49:41;;;;;;;;;;;6.00;99.90;;;;;;5086375;28;19908;-75
2021/12/27 07:52:07;;;;;;;;;;;6.20;99.90;;;;;;5088647;28;19909;-75
2021/12/27 07:54:33;;;;;;;;;;;6.20;99.90;;;;;;5076025;28;19943;-75
2021/12/27 07:57:00;;;;;;;;;;;6.30;99.90;;;;;;5075961;28;19912;-75
2021/12/27 07:59:26;;;;;;;;;;;6.20;99.90;;;;;;5075960;28;20413;-75
2021/12/27 08:01:52;;;;;;;;;;;6.30;99.90;;;;;;5075857;28;19919;-75
2021/12/27 08:04:18;;;;;;;;;;;6.20;99.90;;;;;;5075900;28;19913;-75
2021/12/27 08:06:43;;;;;;;;;;;6.20;99.90;;;;;;5075910;28;19909;-75
2021/12/27 08:09:09;;;;;;;;;;;6.30;99.90;;;;;;5075888;28;19908;-75
2021/12/27 08:11:35;;;;;;;;;;;;;;;;;;5075962;28;19920;-75
2021/12/27 08:14:00;;;;;;;;;;;6.40;99.90;;;;;;5075998;28;20003;-74
2021/12/27 08:16:27;;;;;;;;;;;6.40;99.90;;;;;;5075961;28;19909;-75
2021/12/27 08:18:53;;;;;;;;;;;6.50;99.90;;;;;;5075904;28;19912;-74
2021/12/27 08:21:20;;;;;;;;;;;6.50;99.90;;;;;;5075872;28;19916;-74
2021/12/27 08:23:45;;;;;;;;;;;6.50;99.90;;;;;;5075911;28;19927;-74
2021/12/27 08:26:11;;;;;;;;;;;;;;;;;;5090026;28;19922;-74
2021/12/27 08:28:37;;;;;;;;;;;6.70;99.90;;;;;;5076876;28;19908;-75
2021/12/27 08:31:03;;;;;;;;;;;6.70;99.90;;;;;;5075565;28;19909;-75
2021/12/27 08:33:28;;;;;;;;;;;6.60;99.90;;;;;;5075560;28;19915;-75
2021/12/27 08:35:54;;;;;;;;;;;6.50;99.90;;;;;;5075458;28;19908;-75
2021/12/27 08:38:19;;;;;;;;;;;6.50;99.90;;;;;;5075222;28;19912;-75
2021/12/27 08:40:45;;;;;;;;;;;6.40;99.90;;;;;;5075132;28;19908;-75
2021/12/27 08:43:11;;;;;;;;;;;6.40;99.90;;;;;;5075004;28;19920;-74
2021/12/27 08:45:36;;;;;;;;;;;6.30;99.90;;;;;;5075289;28;19909;-75
2021/12/27 08:48:02;;;;;;;;;;;6.40;99.90;;;;;;5075319;28;20363;-75
2021/12/27 08:50:28;;;;;;;;;;;6.40;99.90;;;;;;5075398;28;19908;-75
2021/12/27 08:52:53;;;;;;;;;;;6.50;99.90;;;;;;5077886;28;20003;-75
2021/12/27 08:55:19;;;;;;;;;;;6.50;99.90;;;;;;5095049;28;19912;-74
2021/12/27 08:57:46;;;;;;;;;;;;;;;;;;5095341;28;19912;-74
2021/12/27 09:00:14;;;;;;;;;;;6.70;99.90;;;;;;5095401;28;19938;-75
2021/12/27 09:02:40;;;;;;;;;;;6.70;99.90;;;;;;5095191;28;19923;-75
2021/12/27 09:05:06;;;;;;;;;;;6.60;99.90;;;;;;5095146;28;19912;-75
2021/12/27 09:07:32;;;;;;;;;;;6.60;99.90;;;;;;5094861;28;19911;-75
2021/12/27 09:09:57;;;;;;;;;;;6.60;99.90;;;;;;5094768;28;20386;-75
2021/12/27 09:12:23;;;;;;;;;;;6.50;99.90;;;;;;5094813;28;19908;-75
2021/12/27 09:14:50;;;;;;;;;;;6.40;99.90;;;;;;5094976;28;19987;-76
2021/12/27 09:17:16;;;;;;;;;;;6.40;99.90;;;;;;5094814;28;19908;-75
2021/12/27 09:19:43;;;;;;;;;;;6.40;99.90;;;;;;5094803;28;19918;-75
2021/12/27 09:22:09;;;;;;;;;;;6.40;99.90;;;;;;5094543;28;19912;-75
2021/12/27 09:24:34;;;;;;;;;;;6.40;99.90;;;;;;5094646;28;20298;-75
2021/12/27 09:27:00;;;;;;;;;;;6.30;99.90;;;;;;5094475;28;19920;-75
2021/12/27 09:29:26;;;;;;;;;;;6.40;99.90;;;;;;5094644;28;19908;-74
2021/12/27 09:31:52;;;;;;;;;;;6.40;99.90;;;;;;5094579;28;19929;-74
2021/12/27 09:34:18;;;;;;;;;;;6.50;99.90;;;;;;5076320;28;19912;-75
2021/12/27 09:36:44;;;;;;;;;;;6.60;99.90;;;;;;5093960;28;20390;-75
2021/12/27 09:39:09;;;;;;;;;;;6.70;99.90;;;;;;5094308;28;19912;-75
2021/12/27 09:41:35;;;;;;;;;;;6.70;99.90;;;;;;5094200;28;19908;-74
2021/12/27 09:44:01;;;;;;;;;;;6.70;99.90;;;;;;5094274;28;19943;-75
2021/12/27 09:46:27;;;;;;;;;;;6.80;99.90;;;;;;5094253;28;19951;-74
2021/12/27 09:48:55;;;;;;;;;;;6.90;99.90;;;;;;5094182;28;19946;-75
2021/12/27 09:51:21;;;;;;;;;;;6.90;99.90;;;;;;5076005;28;20330;-74
2021/12/27 09:53:47;;;;;;;;;;;6.90;99.90;;;;;;5093934;28;19908;-74
2021/12/27 09:56:12;;;;;;;;;;;7.00;99.90;;;;;;5093460;28;19908;-75
2021/12/27 09:58:39;;;;;;;;;;;7.00;99.90;;;;;;5093871;28;19966;-75
2021/12/27 10:01:06;;;;;;;;;;;7.10;99.90;;;;;;5093021;28;19915;-75
2021/12/27 10:03:42;;;;;;;;;;;7.10;99.90;;;;;;5094060;28;19920;-75
2021/12/27 10:06:09;;;;;;;;;;;7.10;99.90;;;;;;5093440;28;19916;-75
2021/12/27 10:08:35;;;;;;;;;;;7.20;99.90;;;;;;5093960;28;19912;-74
2021/12/27 10:11:00;;;;;;;;;;;7.30;99.90;;;;;;5094007;28;19919;-75
2021/12/27 10:13:26;;;;;;;;;;;7.40;99.90;;;;;;5093899;28;19939;-74
2021/12/27 10:15:52;;;;;;;;;;;7.50;99.90;;;;;;5093718;28;19908;-75
2021/12/27 10:18:17;;;;;;;;;;;7.60;99.90;;;;;;5094002;28;19908;-74
2021/12/27 10:20:44;;;;;;;;;;;7.40;99.90;;;;;;5093945;28;19958;-74
2021/12/27 10:23:10;;;;;;;;;;;7.50;99.90;;;;;;5093512;28;20294;-76
2021/12/27 10:25:36;;;;;;;;;;;7.50;99.90;;;;;;5093483;28;19915;-77
2021/12/27 10:28:02;;;;;;;;;;;7.60;99.90;;;;;;5093675;28;19975;-75
2021/12/27 10:30:30;;;;;;;;;;;7.60;99.90;;;;;;5093664;28;20270;-76
2021/12/27 10:33:07;;;;;;;;;;;7.60;99.90;;;;;;5075570;28;19908;-75
2021/12/27 10:35:43;;;;;;;;;;;7.60;99.90;;;;;;5093663;28;19908;-74
2021/12/27 10:38:31;;;;;;;;;;;7.70;99.90;;;;;;5093778;28;19979;-74
2021/12/27 10:41:09;;;;;;;;;;;7.70;99.90;;;;;;5093022;28;19939;-77
2021/12/27 10:43:41;;;;;;;;;;;7.90;99.90;;;;;;5073654;28;20389;-75
2021/12/27 10:46:10;;;;;;;;;;;7.70;99.90;;;;;;5091105;28;19912;-76
2021/12/27 10:48:41;;;;;;;;;;;7.70;99.90;;;;;;5091203;28;19915;-76
2021/12/27 10:51:06;;;;;;;;;;;7.60;99.90;;;;;;5090960;28;19908;-75
2021/12/27 10:53:47;;;;;;;;;;;7.60;99.90;;;;;;5091353;28;19908;-76
2021/12/27 10:56:13;;;;;;;;;;;7.50;99.90;;;;;;5091332;28;19908;-75
2021/12/27 10:58:44;;;;;;;;;;;7.50;99.90;;;;;;5091131;28;19912;-76
2021/12/27 11:01:18;;;;;;;;;;;7.50;99.90;;;;;;5093198;28;20465;-76
2021/12/27 11:03:44;;;;;;;;;;;7.50;99.90;;;;;;5092077;28;20010;-74
2021/12/27 11:06:11;;;;;;;;;;;7.50;99.90;;;;;;5091904;28;19961;-76
2021/12/27 11:08:38;;;;;;;;;;;7.50;99.90;;;;;;5091059;28;19916;-74
2021/12/27 11:11:04;;;;;;;;;;;7.50;99.90;;;;;;5090491;28;20677;-76
2021/12/27 11:13:30;;;;;;;;;;;7.50;99.90;;;;;;5091574;28;19908;-75
2021/12/27 11:15:56;;;;;;;;;;;7.60;99.90;;;;;;5092403;28;19912;-74
2021/12/27 11:18:22;;;;;;;;;;;7.60;99.90;;;;;;5093277;28;20311;-74
2021/12/27 11:20:50;;;;;;;;;;;7.60;99.90;;;;;;5096044;28;20002;-75
2021/12/27 11:23:16;;;;;;;;;;;7.60;99.90;;;;;;5096806;28;19927;-74
2021/12/27 11:25:43;;;;;;;;;;;7.60;99.90;;;;;;5096516;28;20275;-75
2021/12/27 11:28:32;;;;;;;;;;;7.70;99.90;;;;;;5096436;28;20328;-74
2021/12/27 11:31:00;;;;;;;;;;;7.70;99.90;;;;;;5075220;28;19908;-75
2021/12/27 11:33:26;;;;;;;;;;;7.70;99.90;;;;;;5074511;28;19908;-74
2021/12/27 11:35:51;;;;;;;;;;;7.70;99.90;;;;;;5075686;28;19912;-74
2021/12/27 11:38:48;;;;;;;;;;;7.70;99.90;;;;;;5075799;28;20355;-74
2021/12/27 11:41:27;;;;;;;;;;;7.80;99.90;;;;;;5065817;28;19979;-73
2021/12/27 11:43:54;;;;;;;;;;;7.90;99.90;;;;;;5089256;28;19916;-72
2021/12/27 11:46:24;;;;;;;;;;;7.90;99.90;;;;;;5073837;28;19912;-74
2021/12/27 11:48:54;;;;;;;;;;;7.80;99.90;;;;;;5073729;28;19916;-74
2021/12/27 11:51:29;;;;;;;;;;;7.90;99.90;;;;;;5074011;28;19947;-76
2021/12/27 11:53:55;;;;;;;;;;;7.80;99.90;;;;;;5073437;28;19915;-77
2021/12/27 11:56:36;;;;;;;;;;;8.00;99.90;;;;;;5073857;28;19999;-75
2021/12/27 11:59:21;;;;;;;;;;;8.00;99.90;;;;;;5075474;28;19912;-75
2021/12/27 12:01:48;;;;;;;;;;;8.00;99.90;;;;;;5074928;28;19918;-74
2021/12/27 12:04:33;;;;;;;;;;;8.00;99.90;;;;;;5074231;28;19913;-76
2021/12/27 12:06:58;;;;;;;;;;;8.10;99.90;;;;;;5072221;28;19916;-75
2021/12/27 12:09:24;;;;;;;;;;;8.00;99.90;;;;;;5073877;28;19908;-75
2021/12/27 12:12:16;;;;;;;;;;;8.10;99.90;;;;;;5073720;28;19913;-74
2021/12/27 12:14:42;;;;;;;;;;;8.00;99.90;;;;;;5071676;28;20369;-76
2021/12/27 12:17:10;;;;;;;;;;;8.10;99.90;;;;;;5074746;28;19974;-76
2021/12/27 12:19:46;;;;;;;;;;;8.20;99.90;;;;;;5073939;28;20400;-77
2021/12/27 12:22:35;;;;;;;;;;;8.20;99.90;;;;;;5073570;28;20026;-75
2021/12/27 12:25:06;;;;;;;;;;;8.20;99.90;;;;;;5073296;28;19947;-74
2021/12/27 12:27:32;;;;;;;;;;;8.30;99.90;;;;;;5073569;28;20271;-75
2021/12/27 12:29:57;;;;;;;;;;;8.30;99.90;;;;;;5077035;28;19912;-74
2021/12/27 12:32:23;;;;;;;;;;;8.40;99.90;;;;;;5084413;28;19920;-75
2021/12/27 12:34:49;;;;;;;;;;;8.50;99.90;;;;;;5073576;28;20337;-76
2021/12/27 12:37:15;;;;;;;;;;;8.40;99.90;;;;;;5074501;28;19943;-75
2021/12/27 12:39:43;;;;;;;;;;;8.50;99.90;;;;;;5073734;28;19956;-74
2021/12/27 12:42:13;;;;;;;;;;;8.50;99.90;;;;;;5073091;28;20357;-74
2021/12/27 12:44:54;;;;;;;;;;;8.60;99.90;;;;;;5073366;28;19912;-74
2021/12/27 12:47:23;;;;;;;;;;;8.70;99.90;;;;;;5073251;28;19916;-74
2021/12/27 12:49:49;;;;;;;;;;;8.70;99.90;;;;;;5073537;28;19912;-74
2021/12/27 12:52:15;;;;;;;;;;;8.80;99.90;;;;;;5073738;28;19915;-74
2021/12/27 12:54:42;;;;;;;;;;;8.80;99.90;;;;;;5073326;28;20276;-76
2021/12/27 12:57:09;;;;;;;;;;;8.90;99.90;;;;;;5072700;28;19916;-73
2021/12/27 12:59:34;;;;;;;;;;;9.10;99.90;;;;;;5074568;28;19939;-73
2021/12/27 13:02:03;;;;;;;;;;;9.20;99.90;;;;;;5085496;28;19912;-73
2021/12/27 13:04:48;;;;;;;;;;;9.20;99.90;;;;;;5095244;28;19908;-72
2021/12/27 13:07:14;;;;;;;;;;;9.30;99.90;;;;;;5095000;28;19912;-73
2021/12/27 13:09:47;;;;;;;;;;;9.40;99.90;;;;;;5094675;28;19911;-74
2021/12/27 13:12:14;;;;;;;;;;;9.40;99.90;;;;;;5094686;28;19908;-73
2021/12/27 13:14:40;;;;;;;;;;;9.40;99.90;;;;;;5094729;28;20371;-72
2021/12/27 13:17:14;;;;;;;;;;;9.50;99.90;;;;;;5094667;28;20006;-72
2021/12/27 13:19:58;;;;;;;;;;;9.60;99.90;;;;;;5094619;28;19920;-72
2021/12/27 13:22:43;;;;;;;;;;;9.60;99.90;;;;;;5094537;28;19926;-72
2021/12/27 13:25:10;;;;;;;;;;;9.60;99.90;;;;;;5094105;28;19908;-72
2021/12/27 13:27:36;;;;;;;;;;;9.60;99.90;;;;;;5092533;28;19919;-72
2021/12/27 13:30:08;;;;;;;;;;;9.60;99.90;;;;;;5076419;28;19908;-72
2021/12/27 13:32:33;;;;;;;;;;;9.60;99.90;;;;;;5094246;28;19915;-72
2021/12/27 13:34:59;;;;;;;;;;;9.70;99.90;;;;;;5093865;28;19908;-72
2021/12/27 13:37:25;;;;;;;;;;;9.70;99.90;;;;;;5094386;28;19947;-72
2021/12/27 13:40:01;;;;;;;;;;;9.70;99.90;;;;;;5094536;28;19955;-72
2021/12/27 13:42:28;;;;;;;;;;;9.70;99.90;;;;;;5075605;28;19916;-72
2021/12/27 13:45:05;;;;;;;;;;;9.70;99.90;;;;;;5094330;28;19908;-72
2021/12/27 13:47:31;;;;;;;;;;;9.80;99.90;;;;;;5076125;28;19955;-72
2021/12/27 13:49:59;;;;;;;;;;;9.80;99.90;;;;;;5094276;28;19944;-72
2021/12/27 13:52:25;;;;;;;;;;;9.80;99.90;;;;;;5094275;28;19908;-72
2021/12/27 13:54:53;;;;;;;;;;;9.80;99.90;;;;;;5076114;28;19912;-72
2021/12/27 13:57:20;;;;;;;;;;;9.90;99.90;;;;;;5094241;28;20343;-72
2021/12/27 13:59:49;;;;;;;;;;;10.00;99.90;;;;;;5094130;28;19915;-72
2021/12/27 14:02:15;;;;;;;;;;;9.90;99.90;;;;;;5076138;28;19912;-72
2021/12/27 14:04:41;;;;;;;;;;;9.80;99.90;;;;;;5094239;28;20002;-73
2021/12/27 14:07:07;;;;;;;;;;;9.80;99.90;;;;;;5094095;28;19947;-72
2021/12/27 14:09:35;;;;;;;;;;;9.70;99.90;;;;;;5093887;28;20027;-72
2021/12/27 14:12:05;;;;;;;;;;;9.70;99.90;;;;;;5093896;28;19908;-72
2021/12/27 14:14:47;;;;;;;;;;;9.70;99.90;;;;;;5075878;28;19915;-72
2021/12/27 14:17:13;;;;;;;;;;;9.70;99.90;;;;;;5076075;28;19911;-72
2021/12/27 14:19:43;;;;;;;;;;;9.70;99.90;;;;;;5093978;28;19908;-72
2021/12/27 14:22:10;;;;;;;;;;;9.70;99.90;;;;;;5093889;28;19912;-72
2021/12/27 14:24:39;;;;;;;;;;;9.70;99.90;;;;;;5075647;28;20278;-72
2021/12/27 14:27:07;;;;;;;;;;;9.70;99.90;;;;;;5093752;28;19912;-72
2021/12/27 14:29:32;;;;;;;;;;;9.60;99.90;;;;;;5093877;28;20003;-72
2021/12/27 14:31:59;;;;;;;;;;;9.60;99.90;;;;;;5093833;28;19947;-73